sensor_id;sensor_type;location;lat;lon;timestamp;temperature;humidity
43151;DHT22;28755;51.478;5.702;2023-04-30T00:00:11;9.40;99.90
43151;DHT22;28755;51.478;5.702;2023-04-30T00:02:37;9.30;99.90
43151;DHT22;28755;51.478;5.702;2023-04-30T00:05:02;9.20;99.90
43151;DHT22;28755;51.478;5.702;2023-04-30T00:07:28;9.20;99.90
43151;DHT22;28755;51.478;5.702;2023-04-30T00:09:54;9.20;99.90
43151;DHT22;28755;51.478;5.702;2023-04-30T00:12:19;9.10;99.90
43151;DHT22;28755;51.478;5.702;2023-04-30T00:14:45;9.10;99.90
43151;DHT22;28755;51.478;5.702;2023-04-30T00:17:11;9.00;99.90
43151;DHT22;28755;51.478;5.702;2023-04-30T00:19:37;9.00;99.90
43151;DHT22;28755;51.478;5.702;2023-04-30T00:22:02;8.90;99.90
43151;DHT22;28755;51.478;5.702;2023-04-30T00:24:29;8.90;99.90
43151;DHT22;28755;51.478;5.702;2023-04-30T00:26:55;8.90;99.90
43151;DHT22;28755;51.478;5.702;2023-04-30T00:29:20;8.90;99.90
43151;DHT22;28755;51.478;5.702;2023-04-30T00:31:46;8.90;99.90
43151;DHT22;28755;51.478;5.702;2023-04-30T00:34:11;8.80;99.90
43151;DHT22;28755;51.478;5.702;2023-04-30T00:36:37;8.80;99.90
43151;DHT22;28755;51.478;5.702;2023-04-30T00:39:04;8.80;99.90
43151;DHT22;28755;51.478;5.702;2023-04-30T00:41:30;8.80;99.90
43151;DHT22;28755;51.478;5.702;2023-04-30T00:43:56;8.80;99.90
43151;DHT22;28755;51.478;5.702;2023-04-30T00:46:22;8.70;99.90
43151;DHT22;28755;51.478;5.702;2023-04-30T00:48:48;8.70;99.90
43151;DHT22;28755;51.478;5.702;2023-04-30T00:51:13;8.80;99.90
43151;DHT22;28755;51.478;5.702;2023-04-30T00:53:39;8.70;99.90
43151;DHT22;28755;51.478;5.702;2023-04-30T00:56:07;8.70;99.90
43151;DHT22;28755;51.478;5.702;2023-04-30T00:58:34;8.60;99.90
43151;DHT22;28755;51.478;5.702;2023-04-30T01:01:00;8.60;99.90
43151;DHT22;28755;51.478;5.702;2023-04-30T01:03:27;8.60;99.90
43151;DHT22;28755;51.478;5.702;2023-04-30T01:05:53;8.50;99.90
43151;DHT22;28755;51.478;5.702;2023-04-30T01:08:19;8.50;99.90
43151;DHT22;28755;51.478;5.702;2023-04-30T01:10:52;8.50;99.90
43151;DHT22;28755;51.478;5.702;2023-04-30T01:13:31;8.50;99.90
43151;DHT22;28755;51.478;5.702;2023-04-30T01:16:26;8.50;99.90
43151;DHT22;28755;51.478;5.702;2023-04-30T01:18:59;8.50;99.90
43151;DHT22;28755;51.478;5.702;2023-04-30T01:21:27;8.40;99.90
43151;DHT22;28755;51.478;5.702;2023-04-30T01:26:47;8.30;99.90
43151;DHT22;28755;51.478;5.702;2023-04-30T01:29:18;8.30;99.90
43151;DHT22;28755;51.478;5.702;2023-04-30T01:31:45;8.30;99.90
43151;DHT22;28755;51.478;5.702;2023-04-30T01:34:10;8.30;99.90
43151;DHT22;28755;51.478;5.702;2023-04-30T01:41:51;8.30;99.90
43151;DHT22;28755;51.478;5.702;2023-04-30T01:49:38;8.10;99.90
43151;DHT22;28755;51.478;5.702;2023-04-30T01:52:27;8.10;99.90
43151;DHT22;28755;51.478;5.702;2023-04-30T01:55:09;8.10;99.90
43151;DHT22;28755;51.478;5.702;2023-04-30T01:57:57;8.10;99.90
43151;DHT22;28755;51.478;5.702;2023-04-30T02:00:25;8.00;99.90
43151;DHT22;28755;51.478;5.702;2023-04-30T02:02:50;8.00;99.90
43151;DHT22;28755;51.478;5.702;2023-04-30T02:05:16;8.00;99.90
43151;DHT22;28755;51.478;5.702;2023-04-30T02:07:44;8.00;99.90
43151;DHT22;28755;51.478;5.702;2023-04-30T02:10:11;8.10;99.90
43151;DHT22;28755;51.478;5.702;2023-04-30T02:12:37;8.00;99.90
43151;DHT22;28755;51.478;5.702;2023-04-30T02:15:04;8.00;99.90
43151;DHT22;28755;51.478;5.702;2023-04-30T02:17:29;7.90;99.90
43151;DHT22;28755;51.478;5.702;2023-04-30T02:19:56;7.90;99.90
43151;DHT22;28755;51.478;5.702;2023-04-30T02:22:21;7.90;99.90
43151;DHT22;28755;51.478;5.702;2023-04-30T02:24:47;7.80;99.90
43151;DHT22;28755;51.478;5.702;2023-04-30T02:27:13;7.90;99.90
43151;DHT22;28755;51.478;5.702;2023-04-30T02:29:38;7.80;99.90
43151;DHT22;28755;51.478;5.702;2023-04-30T02:32:04;7.80;99.90
43151;DHT22;28755;51.478;5.702;2023-04-30T02:34:30;7.80;99.90
43151;DHT22;28755;51.478;5.702;2023-04-30T02:36:55;7.70;99.90
43151;DHT22;28755;51.478;5.702;2023-04-30T02:39:21;7.80;99.90
43151;DHT22;28755;51.478;5.702;2023-04-30T02:41:46;7.80;99.90
43151;DHT22;28755;51.478;5.702;2023-04-30T02:44:12;7.70;99.90
43151;DHT22;28755;51.478;5.702;2023-04-30T02:46:37;7.70;99.90
43151;DHT22;28755;51.478;5.702;2023-04-30T02:49:03;7.80;99.90
43151;DHT22;28755;51.478;5.702;2023-04-30T02:51:28;7.70;99.90
43151;DHT22;28755;51.478;5.702;2023-04-30T02:53:54;7.70;99.90
43151;DHT22;28755;51.478;5.702;2023-04-30T02:56:20;7.60;99.90
43151;DHT22;28755;51.478;5.702;2023-04-30T02:58:46;7.60;99.90
43151;DHT22;28755;51.478;5.702;2023-04-30T03:01:12;7.60;99.90
43151;DHT22;28755;51.478;5.702;2023-04-30T03:03:38;7.60;99.90
43151;DHT22;28755;51.478;5.702;2023-04-30T03:06:04;7.50;99.90
43151;DHT22;28755;51.478;5.702;2023-04-30T03:08:29;7.50;99.90
43151;DHT22;28755;51.478;5.702;2023-04-30T03:10:55;7.50;99.90
43151;DHT22;28755;51.478;5.702;2023-04-30T03:13:20;7.50;99.90
43151;DHT22;28755;51.478;5.702;2023-04-30T03:15:46;7.50;99.90
43151;DHT22;28755;51.478;5.702;2023-04-30T03:18:12;7.40;99.90
43151;DHT22;28755;51.478;5.702;2023-04-30T03:20:37;7.50;99.90
43151;DHT22;28755;51.478;5.702;2023-04-30T03:23:03;7.40;99.90
43151;DHT22;28755;51.478;5.702;2023-04-30T03:25:29;7.40;99.90
43151;DHT22;28755;51.478;5.702;2023-04-30T03:27:54;7.50;99.90
43151;DHT22;28755;51.478;5.702;2023-04-30T03:30:20;7.30;99.90
43151;DHT22;28755;51.478;5.702;2023-04-30T03:32:45;7.30;99.90
43151;DHT22;28755;51.478;5.702;2023-04-30T03:35:11;7.30;99.90
43151;DHT22;28755;51.478;5.702;2023-04-30T03:37:36;7.40;99.90
43151;DHT22;28755;51.478;5.702;2023-04-30T03:40:02;7.30;99.90
43151;DHT22;28755;51.478;5.702;2023-04-30T03:42:29;7.20;99.90
43151;DHT22;28755;51.478;5.702;2023-04-30T03:44:54;7.20;99.90
43151;DHT22;28755;51.478;5.702;2023-04-30T03:47:20;7.20;99.90
43151;DHT22;28755;51.478;5.702;2023-04-30T03:49:45;7.20;99.90
43151;DHT22;28755;51.478;5.702;2023-04-30T03:52:13;7.20;99.90
43151;DHT22;28755;51.478;5.702;2023-04-30T03:54:38;7.20;99.90
43151;DHT22;28755;51.478;5.702;2023-04-30T03:57:04;7.20;99.90
43151;DHT22;28755;51.478;5.702;2023-04-30T03:59:32;7.10;99.90
43151;DHT22;28755;51.478;5.702;2023-04-30T04:01:59;7.00;99.90
43151;DHT22;28755;51.478;5.702;2023-04-30T04:04:25;7.10;99.90
43151;DHT22;28755;51.478;5.702;2023-04-30T04:06:51;7.10;99.90
43151;DHT22;28755;51.478;5.702;2023-04-30T04:09:16;7.00;99.90
43151;DHT22;28755;51.478;5.702;2023-04-30T04:11:42;7.00;99.90
43151;DHT22;28755;51.478;5.702;2023-04-30T04:14:07;7.00;99.90
43151;DHT22;28755;51.478;5.702;2023-04-30T04:16:33;7.00;99.90
43151;DHT22;28755;51.478;5.702;2023-04-30T04:18:58;7.00;99.90
43151;DHT22;28755;51.478;5.702;2023-04-30T04:21:25;7.10;99.90
43151;DHT22;28755;51.478;5.702;2023-04-30T04:23:51;7.00;99.90
43151;DHT22;28755;51.478;5.702;2023-04-30T04:26:16;7.00;99.90
43151;DHT22;28755;51.478;5.702;2023-04-30T04:28:44;7.10;99.90
43151;DHT22;28755;51.478;5.702;2023-04-30T04:31:09;7.10;99.90
43151;DHT22;28755;51.478;5.702;2023-04-30T04:33:35;7.10;99.90
43151;DHT22;28755;51.478;5.702;2023-04-30T04:36:01;7.00;99.90
43151;DHT22;28755;51.478;5.702;2023-04-30T04:38:27;7.00;99.90
43151;DHT22;28755;51.478;5.702;2023-04-30T04:40:53;7.10;99.90
43151;DHT22;28755;51.478;5.702;2023-04-30T04:43:19;7.10;99.90
43151;DHT22;28755;51.478;5.702;2023-04-30T04:45:44;7.00;99.90
43151;DHT22;28755;51.478;5.702;2023-04-30T04:48:11;7.10;99.90
43151;DHT22;28755;51.478;5.702;2023-04-30T04:50:37;7.10;99.90
43151;DHT22;28755;51.478;5.702;2023-04-30T04:53:02;7.20;99.90
43151;DHT22;28755;51.478;5.702;2023-04-30T04:55:28;7.30;99.90
43151;DHT22;28755;51.478;5.702;2023-04-30T04:57:53;7.30;99.90
43151;DHT22;28755;51.478;5.702;2023-04-30T05:00:19;7.30;99.90
43151;DHT22;28755;51.478;5.702;2023-04-30T05:02:46;7.40;99.90
43151;DHT22;28755;51.478;5.702;2023-04-30T05:05:12;7.40;99.90
43151;DHT22;28755;51.478;5.702;2023-04-30T05:07:38;7.60;99.90
43151;DHT22;28755;51.478;5.702;2023-04-30T05:10:04;7.60;99.90
43151;DHT22;28755;51.478;5.702;2023-04-30T05:12:30;7.70;99.90
43151;DHT22;28755;51.478;5.702;2023-04-30T05:14:55;7.80;99.90
43151;DHT22;28755;51.478;5.702;2023-04-30T05:17:21;7.80;99.90
43151;DHT22;28755;51.478;5.702;2023-04-30T05:19:46;7.90;99.90
43151;DHT22;28755;51.478;5.702;2023-04-30T05:22:15;8.00;99.90
43151;DHT22;28755;51.478;5.702;2023-04-30T05:24:41;8.00;99.90
43151;DHT22;28755;51.478;5.702;2023-04-30T05:27:06;8.10;99.90
43151;DHT22;28755;51.478;5.702;2023-04-30T05:29:32;8.20;99.90
43151;DHT22;28755;51.478;5.702;2023-04-30T05:31:58;8.20;99.90
43151;DHT22;28755;51.478;5.702;2023-04-30T05:34:23;8.30;99.90
43151;DHT22;28755;51.478;5.702;2023-04-30T05:36:49;8.40;99.90
43151;DHT22;28755;51.478;5.702;2023-04-30T05:39:15;8.40;99.90
43151;DHT22;28755;51.478;5.702;2023-04-30T05:41:40;8.50;99.90
43151;DHT22;28755;51.478;5.702;2023-04-30T05:44:06;8.50;99.90
43151;DHT22;28755;51.478;5.702;2023-04-30T05:46:31;8.70;99.90
43151;DHT22;28755;51.478;5.702;2023-04-30T05:48:57;8.80;99.90
43151;DHT22;28755;51.478;5.702;2023-04-30T05:51:23;8.90;99.90
43151;DHT22;28755;51.478;5.702;2023-04-30T05:53:48;9.00;99.90
43151;DHT22;28755;51.478;5.702;2023-04-30T05:56:14;9.10;99.90
43151;DHT22;28755;51.478;5.702;2023-04-30T05:58:39;9.20;99.90
43151;DHT22;28755;51.478;5.702;2023-04-30T06:01:05;9.30;99.90
43151;DHT22;28755;51.478;5.702;2023-04-30T06:03:30;9.40;99.90
43151;DHT22;28755;51.478;5.702;2023-04-30T06:05:56;9.50;99.90
43151;DHT22;28755;51.478;5.702;2023-04-30T06:08:22;9.50;99.90
43151;DHT22;28755;51.478;5.702;2023-04-30T06:10:48;9.60;99.90
43151;DHT22;28755;51.478;5.702;2023-04-30T06:13:15;9.70;99.90
43151;DHT22;28755;51.478;5.702;2023-04-30T06:15:40;9.80;99.90
43151;DHT22;28755;51.478;5.702;2023-04-30T06:18:06;9.90;99.90
43151;DHT22;28755;51.478;5.702;2023-04-30T06:20:32;10.00;99.90
43151;DHT22;28755;51.478;5.702;2023-04-30T06:22:58;10.10;99.90
43151;DHT22;28755;51.478;5.702;2023-04-30T06:25:24;10.20;99.90
43151;DHT22;28755;51.478;5.702;2023-04-30T06:27:50;10.30;99.90
43151;DHT22;28755;51.478;5.702;2023-04-30T06:30:18;10.50;99.90
43151;DHT22;28755;51.478;5.702;2023-04-30T06:32:44;10.50;99.90
43151;DHT22;28755;51.478;5.702;2023-04-30T06:35:10;10.50;99.90
43151;DHT22;28755;51.478;5.702;2023-04-30T06:37:35;10.60;99.90
43151;DHT22;28755;51.478;5.702;2023-04-30T06:40:03;10.80;99.90
43151;DHT22;28755;51.478;5.702;2023-04-30T06:42:30;10.90;99.90
43151;DHT22;28755;51.478;5.702;2023-04-30T06:45:00;11.00;99.90
43151;DHT22;28755;51.478;5.702;2023-04-30T06:47:27;11.20;99.90
43151;DHT22;28755;51.478;5.702;2023-04-30T06:49:52;11.40;99.90
43151;DHT22;28755;51.478;5.702;2023-04-30T06:52:18;11.60;99.90
43151;DHT22;28755;51.478;5.702;2023-04-30T06:54:43;11.70;99.90
43151;DHT22;28755;51.478;5.702;2023-04-30T06:57:09;11.70;99.90
43151;DHT22;28755;51.478;5.702;2023-04-30T06:59:35;11.80;99.90
43151;DHT22;28755;51.478;5.702;2023-04-30T07:02:00;11.90;99.90
43151;DHT22;28755;51.478;5.702;2023-04-30T07:04:26;11.80;99.90
43151;DHT22;28755;51.478;5.702;2023-04-30T07:06:52;12.00;99.90
43151;DHT22;28755;51.478;5.702;2023-04-30T07:09:18;12.20;99.90
43151;DHT22;28755;51.478;5.702;2023-04-30T07:11:43;12.30;99.90
43151;DHT22;28755;51.478;5.702;2023-04-30T07:14:09;12.40;99.90
43151;DHT22;28755;51.478;5.702;2023-04-30T07:16:35;12.60;99.90
43151;DHT22;28755;51.478;5.702;2023-04-30T07:19:00;12.70;99.90
43151;DHT22;28755;51.478;5.702;2023-04-30T07:21:26;12.70;99.90
43151;DHT22;28755;51.478;5.702;2023-04-30T07:23:52;12.70;99.90
43151;DHT22;28755;51.478;5.702;2023-04-30T07:26:17;12.70;99.90
43151;DHT22;28755;51.478;5.702;2023-04-30T07:28:46;12.80;99.90
43151;DHT22;28755;51.478;5.702;2023-04-30T07:31:11;12.90;99.90
43151;DHT22;28755;51.478;5.702;2023-04-30T07:33:37;13.00;99.90
43151;DHT22;28755;51.478;5.702;2023-04-30T07:36:03;13.00;99.90
43151;DHT22;28755;51.478;5.702;2023-04-30T07:38:29;13.30;99.90
43151;DHT22;28755;51.478;5.702;2023-04-30T07:40:55;13.60;99.90
43151;DHT22;28755;51.478;5.702;2023-04-30T07:43:20;13.90;99.90
43151;DHT22;28755;51.478;5.702;2023-04-30T07:45:46;14.10;99.90
43151;DHT22;28755;51.478;5.702;2023-04-30T07:48:13;14.10;99.90
43151;DHT22;28755;51.478;5.702;2023-04-30T07:50:39;14.30;99.90
43151;DHT22;28755;51.478;5.702;2023-04-30T07:53:05;14.40;99.90
43151;DHT22;28755;51.478;5.702;2023-04-30T07:55:33;14.40;99.90
43151;DHT22;28755;51.478;5.702;2023-04-30T07:57:59;14.60;99.90
43151;DHT22;28755;51.478;5.702;2023-04-30T08:00:26;15.00;99.90
43151;DHT22;28755;51.478;5.702;2023-04-30T08:02:53;15.20;99.90
43151;DHT22;28755;51.478;5.702;2023-04-30T08:05:19;15.40;99.90
43151;DHT22;28755;51.478;5.702;2023-04-30T08:07:45;15.50;99.90
43151;DHT22;28755;51.478;5.702;2023-04-30T08:10:11;15.50;99.90
43151;DHT22;28755;51.478;5.702;2023-04-30T08:12:37;15.80;99.90
43151;DHT22;28755;51.478;5.702;2023-04-30T08:15:04;16.00;99.90
43151;DHT22;28755;51.478;5.702;2023-04-30T08:17:31;16.10;99.90
43151;DHT22;28755;51.478;5.702;2023-04-30T08:19:57;16.50;99.90
43151;DHT22;28755;51.478;5.702;2023-04-30T08:22:23;16.70;99.90
43151;DHT22;28755;51.478;5.702;2023-04-30T08:24:48;17.10;99.90
43151;DHT22;28755;51.478;5.702;2023-04-30T08:27:15;17.50;99.90
43151;DHT22;28755;51.478;5.702;2023-04-30T08:29:43;17.90;99.90
43151;DHT22;28755;51.478;5.702;2023-04-30T08:32:09;18.30;99.90
43151;DHT22;28755;51.478;5.702;2023-04-30T08:34:35;18.80;99.90
43151;DHT22;28755;51.478;5.702;2023-04-30T08:37:01;19.10;99.90
43151;DHT22;28755;51.478;5.702;2023-04-30T08:39:26;19.20;99.90
43151;DHT22;28755;51.478;5.702;2023-04-30T08:41:55;19.40;99.90
43151;DHT22;28755;51.478;5.702;2023-04-30T08:44:22;19.60;99.90
43151;DHT22;28755;51.478;5.702;2023-04-30T08:46:53;19.60;99.90
43151;DHT22;28755;51.478;5.702;2023-04-30T08:49:22;19.80;99.90
43151;DHT22;28755;51.478;5.702;2023-04-30T08:51:48;20.30;99.90
43151;DHT22;28755;51.478;5.702;2023-04-30T08:54:14;20.70;99.90
43151;DHT22;28755;51.478;5.702;2023-04-30T08:56:41;21.40;99.90
43151;DHT22;28755;51.478;5.702;2023-04-30T08:59:07;21.60;99.90
43151;DHT22;28755;51.478;5.702;2023-04-30T09:01:33;21.50;99.90
43151;DHT22;28755;51.478;5.702;2023-04-30T09:03:59;22.30;99.90
43151;DHT22;28755;51.478;5.702;2023-04-30T09:06:27;22.60;99.90
43151;DHT22;28755;51.478;5.702;2023-04-30T09:08:52;23.30;99.90
43151;DHT22;28755;51.478;5.702;2023-04-30T09:11:23;22.90;99.90
43151;DHT22;28755;51.478;5.702;2023-04-30T09:13:51;23.40;99.90
43151;DHT22;28755;51.478;5.702;2023-04-30T09:16:19;24.00;99.90
43151;DHT22;28755;51.478;5.702;2023-04-30T09:18:44;24.20;99.90
43151;DHT22;28755;51.478;5.702;2023-04-30T09:21:11;24.30;99.90
43151;DHT22;28755;51.478;5.702;2023-04-30T09:23:36;24.60;99.90
43151;DHT22;28755;51.478;5.702;2023-04-30T09:26:25;25.10;99.90
43151;DHT22;28755;51.478;5.702;2023-04-30T09:28:56;25.80;97.90
43151;DHT22;28755;51.478;5.702;2023-04-30T09:31:22;25.60;97.50
43151;DHT22;28755;51.478;5.702;2023-04-30T09:33:48;25.90;97.30
43151;DHT22;28755;51.478;5.702;2023-04-30T09:36:15;26.50;96.90
43151;DHT22;28755;51.478;5.702;2023-04-30T09:38:41;26.90;95.40
43151;DHT22;28755;51.478;5.702;2023-04-30T09:41:23;26.30;95.10
43151;DHT22;28755;51.478;5.702;2023-04-30T09:43:50;26.50;94.80
43151;DHT22;28755;51.478;5.702;2023-04-30T09:46:18;26.80;94.10
43151;DHT22;28755;51.478;5.702;2023-04-30T09:48:45;26.80;93.90
43151;DHT22;28755;51.478;5.702;2023-04-30T09:51:10;26.80;93.60
43151;DHT22;28755;51.478;5.702;2023-04-30T09:53:41;27.00;92.80
43151;DHT22;28755;51.478;5.702;2023-04-30T09:56:10;27.30;93.00
43151;DHT22;28755;51.478;5.702;2023-04-30T09:58:37;27.30;92.30
43151;DHT22;28755;51.478;5.702;2023-04-30T10:01:04;27.30;92.00
43151;DHT22;28755;51.478;5.702;2023-04-30T10:03:33;27.30;92.60
43151;DHT22;28755;51.478;5.702;2023-04-30T10:05:59;27.10;92.70
43151;DHT22;28755;51.478;5.702;2023-04-30T10:08:39;27.40;91.80
43151;DHT22;28755;51.478;5.702;2023-04-30T10:11:09;27.30;92.00
43151;DHT22;28755;51.478;5.702;2023-04-30T10:13:51;28.00;91.30
43151;DHT22;28755;51.478;5.702;2023-04-30T10:16:39;28.60;90.60
43151;DHT22;28755;51.478;5.702;2023-04-30T10:19:21;29.10;89.90
43151;DHT22;28755;51.478;5.702;2023-04-30T10:21:48;29.00;87.80
43151;DHT22;28755;51.478;5.702;2023-04-30T10:24:14;28.90;88.50
43151;DHT22;28755;51.478;5.702;2023-04-30T10:26:42;29.40;87.70
43151;DHT22;28755;51.478;5.702;2023-04-30T10:29:09;29.00;85.80
43151;DHT22;28755;51.478;5.702;2023-04-30T10:31:35;28.40;85.30
43151;DHT22;28755;51.478;5.702;2023-04-30T10:37:31;29.10;85.40
43151;DHT22;28755;51.478;5.702;2023-04-30T10:39:58;29.80;84.90
43151;DHT22;28755;51.478;5.702;2023-04-30T10:42:26;29.90;84.70
43151;DHT22;28755;51.478;5.702;2023-04-30T10:44:52;29.60;83.90
43151;DHT22;28755;51.478;5.702;2023-04-30T10:47:18;29.00;83.90
43151;DHT22;28755;51.478;5.702;2023-04-30T10:49:48;28.90;84.20
43151;DHT22;28755;51.478;5.702;2023-04-30T10:52:25;29.00;82.60
43151;DHT22;28755;51.478;5.702;2023-04-30T10:54:51;29.20;83.40
43151;DHT22;28755;51.478;5.702;2023-04-30T10:57:17;29.50;82.00
43151;DHT22;28755;51.478;5.702;2023-04-30T11:02:43;27.40;83.10
43151;DHT22;28755;51.478;5.702;2023-04-30T11:05:11;25.70;84.60
43151;DHT22;28755;51.478;5.702;2023-04-30T11:07:45;27.40;84.50
43151;DHT22;28755;51.478;5.702;2023-04-30T11:10:13;29.30;83.50
43151;DHT22;28755;51.478;5.702;2023-04-30T11:12:41;30.50;82.10
43151;DHT22;28755;51.478;5.702;2023-04-30T11:15:13;31.20;81.40
43151;DHT22;28755;51.478;5.702;2023-04-30T11:17:39;31.40;80.50
43151;DHT22;28755;51.478;5.702;2023-04-30T11:20:05;31.10;79.80
43151;DHT22;28755;51.478;5.702;2023-04-30T11:22:31;31.00;80.60
43151;DHT22;28755;51.478;5.702;2023-04-30T11:27:35;30.40;77.40
43151;DHT22;28755;51.478;5.702;2023-04-30T11:30:02;29.80;78.20
43151;DHT22;28755;51.478;5.702;2023-04-30T11:32:33;29.60;78.60
43151;DHT22;28755;51.478;5.702;2023-04-30T11:35:00;30.10;78.60
43151;DHT22;28755;51.478;5.702;2023-04-30T11:37:32;31.00;78.50
43151;DHT22;28755;51.478;5.702;2023-04-30T11:40:02;30.90;77.80
43151;DHT22;28755;51.478;5.702;2023-04-30T11:42:29;31.00;77.90
43151;DHT22;28755;51.478;5.702;2023-04-30T11:45:13;30.30;77.50
43151;DHT22;28755;51.478;5.702;2023-04-30T11:47:47;29.20;79.10
43151;DHT22;28755;51.478;5.702;2023-04-30T11:50:19;27.80;78.90
43151;DHT22;28755;51.478;5.702;2023-04-30T11:52:50;27.50;78.10
43151;DHT22;28755;51.478;5.702;2023-04-30T11:55:18;25.90;78.70
43151;DHT22;28755;51.478;5.702;2023-04-30T11:57:46;25.60;79.20
43151;DHT22;28755;51.478;5.702;2023-04-30T12:00:15;25.30;80.10
43151;DHT22;28755;51.478;5.702;2023-04-30T12:02:43;24.30;80.30
43151;DHT22;28755;51.478;5.702;2023-04-30T12:05:13;24.00;80.40
43151;DHT22;28755;51.478;5.702;2023-04-30T12:08:04;24.20;82.10
43151;DHT22;28755;51.478;5.702;2023-04-30T12:10:34;23.30;82.00
43151;DHT22;28755;51.478;5.702;2023-04-30T12:13:00;23.10;82.50
43151;DHT22;28755;51.478;5.702;2023-04-30T12:15:27;23.90;84.00
43151;DHT22;28755;51.478;5.702;2023-04-30T12:17:55;24.30;82.80
43151;DHT22;28755;51.478;5.702;2023-04-30T12:20:22;24.50;82.40
43151;DHT22;28755;51.478;5.702;2023-04-30T12:22:48;24.60;82.30
43151;DHT22;28755;51.478;5.702;2023-04-30T12:25:15;24.40;81.70
43151;DHT22;28755;51.478;5.702;2023-04-30T12:27:45;24.60;82.60
43151;DHT22;28755;51.478;5.702;2023-04-30T12:30:11;25.20;85.00
43151;DHT22;28755;51.478;5.702;2023-04-30T12:32:42;24.90;81.70
43151;DHT22;28755;51.478;5.702;2023-04-30T12:35:12;24.50;82.00
43151;DHT22;28755;51.478;5.702;2023-04-30T12:37:46;24.30;82.60
43151;DHT22;28755;51.478;5.702;2023-04-30T12:40:15;24.70;82.70
43151;DHT22;28755;51.478;5.702;2023-04-30T12:42:41;25.10;82.70
43151;DHT22;28755;51.478;5.702;2023-04-30T12:45:12;25.60;82.10
43151;DHT22;28755;51.478;5.702;2023-04-30T12:47:41;25.10;81.90
43151;DHT22;28755;51.478;5.702;2023-04-30T12:50:11;24.60;83.20
43151;DHT22;28755;51.478;5.702;2023-04-30T12:52:38;24.50;83.90
43151;DHT22;28755;51.478;5.702;2023-04-30T12:55:18;25.20;84.50
43151;DHT22;28755;51.478;5.702;2023-04-30T12:58:04;25.30;82.00
43151;DHT22;28755;51.478;5.702;2023-04-30T13:00:49;25.40;81.00
43151;DHT22;28755;51.478;5.702;2023-04-30T13:03:19;25.60;81.30
43151;DHT22;28755;51.478;5.702;2023-04-30T13:05:51;25.50;81.70
43151;DHT22;28755;51.478;5.702;2023-04-30T13:08:18;25.30;82.70
43151;DHT22;28755;51.478;5.702;2023-04-30T13:10:44;24.60;84.30
43151;DHT22;28755;51.478;5.702;2023-04-30T13:13:11;24.60;84.70
43151;DHT22;28755;51.478;5.702;2023-04-30T13:15:37;24.20;84.40
43151;DHT22;28755;51.478;5.702;2023-04-30T13:18:04;23.70;85.30
43151;DHT22;28755;51.478;5.702;2023-04-30T13:20:33;23.30;84.50
43151;DHT22;28755;51.478;5.702;2023-04-30T13:22:59;23.00;85.00
43151;DHT22;28755;51.478;5.702;2023-04-30T13:25:24;22.80;86.70
43151;DHT22;28755;51.478;5.702;2023-04-30T13:27:50;23.30;85.70
43151;DHT22;28755;51.478;5.702;2023-04-30T13:30:16;23.50;85.10
43151;DHT22;28755;51.478;5.702;2023-04-30T13:32:42;23.50;83.10
43151;DHT22;28755;51.478;5.702;2023-04-30T13:35:08;23.30;82.40
43151;DHT22;28755;51.478;5.702;2023-04-30T13:37:33;23.60;83.90
43151;DHT22;28755;51.478;5.702;2023-04-30T13:40:00;24.20;84.10
43151;DHT22;28755;51.478;5.702;2023-04-30T13:42:26;24.00;82.50
43151;DHT22;28755;51.478;5.702;2023-04-30T13:44:51;23.90;82.80
43151;DHT22;28755;51.478;5.702;2023-04-30T13:47:18;24.20;82.70
43151;DHT22;28755;51.478;5.702;2023-04-30T13:49:45;24.00;83.70
43151;DHT22;28755;51.478;5.702;2023-04-30T13:52:11;23.80;84.00
43151;DHT22;28755;51.478;5.702;2023-04-30T13:54:37;23.30;83.70
43151;DHT22;28755;51.478;5.702;2023-04-30T13:57:03;23.30;85.00
43151;DHT22;28755;51.478;5.702;2023-04-30T13:59:29;23.80;84.20
43151;DHT22;28755;51.478;5.702;2023-04-30T14:01:56;23.50;84.60
43151;DHT22;28755;51.478;5.702;2023-04-30T14:04:22;23.30;84.40
43151;DHT22;28755;51.478;5.702;2023-04-30T14:06:47;22.90;84.40
43151;DHT22;28755;51.478;5.702;2023-04-30T14:09:13;22.90;84.70
43151;DHT22;28755;51.478;5.702;2023-04-30T14:11:40;22.70;84.30
43151;DHT22;28755;51.478;5.702;2023-04-30T14:14:07;22.80;84.40
43151;DHT22;28755;51.478;5.702;2023-04-30T14:16:33;22.90;84.20
43151;DHT22;28755;51.478;5.702;2023-04-30T14:18:59;23.20;84.80
43151;DHT22;28755;51.478;5.702;2023-04-30T14:21:25;23.70;84.10
43151;DHT22;28755;51.478;5.702;2023-04-30T14:23:51;24.70;83.60
43151;DHT22;28755;51.478;5.702;2023-04-30T14:26:17;25.30;82.60
43151;DHT22;28755;51.478;5.702;2023-04-30T14:28:43;25.40;83.10
43151;DHT22;28755;51.478;5.702;2023-04-30T14:31:08;25.30;82.30
43151;DHT22;28755;51.478;5.702;2023-04-30T14:33:35;25.30;81.60
43151;DHT22;28755;51.478;5.702;2023-04-30T14:36:00;24.50;81.50
43151;DHT22;28755;51.478;5.702;2023-04-30T14:38:26;23.70;82.60
43151;DHT22;28755;51.478;5.702;2023-04-30T14:40:51;23.70;83.80
43151;DHT22;28755;51.478;5.702;2023-04-30T14:43:17;23.40;83.10
43151;DHT22;28755;51.478;5.702;2023-04-30T14:45:43;23.50;83.50
43151;DHT22;28755;51.478;5.702;2023-04-30T14:48:12;23.40;83.30
43151;DHT22;28755;51.478;5.702;2023-04-30T14:50:38;23.50;83.20
43151;DHT22;28755;51.478;5.702;2023-04-30T14:53:04;23.10;83.30
43151;DHT22;28755;51.478;5.702;2023-04-30T14:55:31;22.90;83.80
43151;DHT22;28755;51.478;5.702;2023-04-30T14:57:57;22.70;85.10
43151;DHT22;28755;51.478;5.702;2023-04-30T15:00:23;23.20;85.20
43151;DHT22;28755;51.478;5.702;2023-04-30T15:02:49;23.40;83.80
43151;DHT22;28755;51.478;5.702;2023-04-30T15:05:15;23.90;83.50
43151;DHT22;28755;51.478;5.702;2023-04-30T15:07:40;24.30;83.50
43151;DHT22;28755;51.478;5.702;2023-04-30T15:10:06;24.20;83.70
43151;DHT22;28755;51.478;5.702;2023-04-30T15:12:32;24.00;82.90
43151;DHT22;28755;51.478;5.702;2023-04-30T15:15:00;23.90;82.80
43151;DHT22;28755;51.478;5.702;2023-04-30T15:17:26;24.10;82.80
43151;DHT22;28755;51.478;5.702;2023-04-30T15:19:52;24.30;82.70
43151;DHT22;28755;51.478;5.702;2023-04-30T15:22:20;24.30;81.90
43151;DHT22;28755;51.478;5.702;2023-04-30T15:24:48;24.00;82.00
43151;DHT22;28755;51.478;5.702;2023-04-30T15:27:14;24.20;82.10
43151;DHT22;28755;51.478;5.702;2023-04-30T15:29:43;24.30;82.90
43151;DHT22;28755;51.478;5.702;2023-04-30T15:32:11;24.50;83.30
43151;DHT22;28755;51.478;5.702;2023-04-30T15:34:36;24.50;83.30
43151;DHT22;28755;51.478;5.702;2023-04-30T15:37:02;23.70;83.40
43151;DHT22;28755;51.478;5.702;2023-04-30T15:39:28;23.00;85.50
43151;DHT22;28755;51.478;5.702;2023-04-30T15:41:53;22.70;85.10
43151;DHT22;28755;51.478;5.702;2023-04-30T15:44:19;22.50;85.70
43151;DHT22;28755;51.478;5.702;2023-04-30T15:46:45;22.10;85.50
43151;DHT22;28755;51.478;5.702;2023-04-30T15:49:10;21.70;85.80
43151;DHT22;28755;51.478;5.702;2023-04-30T15:51:36;21.50;86.50
43151;DHT22;28755;51.478;5.702;2023-04-30T15:54:03;21.50;87.00
43151;DHT22;28755;51.478;5.702;2023-04-30T15:56:34;21.50;86.50
43151;DHT22;28755;51.478;5.702;2023-04-30T15:58:59;21.60;86.40